createdAt,value
2022-12-13T00:01:55.676Z,-1.30
2022-12-13T00:04:24.727Z,-1.30
2022-12-13T00:06:54.157Z,-1.30
2022-12-13T00:09:22.077Z,-1.30
2022-12-13T00:11:50.152Z,-1.30
2022-12-13T00:14:18.208Z,-1.30
2022-12-13T00:16:47.687Z,-1.30
2022-12-13T00:19:16.221Z,-1.20
2022-12-13T00:21:47.255Z,-1.30
2022-12-13T00:24:16.574Z,-1.20
2022-12-13T00:26:46.639Z,-1.30
2022-12-13T00:29:15.298Z,-1.30
2022-12-13T00:31:58.902Z,-1.30
2022-12-13T00:34:27.631Z,-1.30
2022-12-13T00:36:59.155Z,-1.40
2022-12-13T00:39:28.141Z,-1.40
2022-12-13T00:41:55.906Z,-1.40
2022-12-13T00:44:23.386Z,-1.40
2022-12-13T00:46:51.900Z,-1.40
2022-12-13T00:49:19.583Z,-1.40
2022-12-13T00:51:49.632Z,-1.40
2022-12-13T00:54:18.357Z,-1.50
2022-12-13T00:56:48.397Z,-1.40
2022-12-13T00:59:17.281Z,-1.50
2022-12-13T01:01:45.878Z,-1.40
2022-12-13T01:04:16.480Z,-1.50
2022-12-13T01:06:46.885Z,-1.50
2022-12-13T01:09:29.953Z,-1.60
2022-12-13T01:12:05.608Z,-1.60
2022-12-13T01:14:36.057Z,-1.60
2022-12-13T01:17:03.598Z,-1.50
2022-12-13T01:19:32.859Z,-1.60
2022-12-13T01:22:04.397Z,-1.50
2022-12-13T01:24:34.884Z,-1.50
2022-12-13T01:27:03.352Z,-1.50
2022-12-13T01:29:30.340Z,-1.50
2022-12-13T01:31:58.251Z,-1.50
2022-12-13T01:34:26.175Z,-1.60
2022-12-13T01:36:57.986Z,-1.50
2022-12-13T01:39:28.266Z,-1.60
2022-12-13T01:41:59.842Z,-1.60
2022-12-13T01:44:52.267Z,-1.60
2022-12-13T01:47:26.641Z,-1.60
2022-12-13T01:49:59.696Z,-1.60
2022-12-13T01:52:30.276Z,-1.60
2022-12-13T01:55:03.714Z,-1.60
2022-12-13T01:57:33.088Z,-1.60
2022-12-13T02:00:01.574Z,-1.70
2022-12-13T02:02:30.042Z,-1.60
2022-12-13T02:05:04.780Z,-1.60
2022-12-13T02:07:34.288Z,-1.60
2022-12-13T02:10:04.555Z,-1.70
2022-12-13T02:12:34.942Z,-1.70
2022-12-13T02:15:11.898Z,-1.70
2022-12-13T02:18:07.874Z,-1.60
2022-12-13T02:21:00.515Z,-1.60
2022-12-13T02:23:55.340Z,-1.60
2022-12-13T02:26:53.242Z,-1.60
2022-12-13T02:29:39.126Z,-1.60
2022-12-13T02:32:16.831Z,-1.70
2022-12-13T02:35:00.545Z,-1.70
2022-12-13T02:37:51.864Z,-1.60
2022-12-13T02:40:28.045Z,-1.70
2022-12-13T02:43:09.524Z,-1.70
2022-12-13T02:45:46.653Z,-1.60
2022-12-13T02:48:20.019Z,-1.60
2022-12-13T02:50:48.436Z,-1.70
2022-12-13T02:53:19.333Z,-1.70
2022-12-13T02:55:46.205Z,-1.70
2022-12-13T02:58:15.421Z,-1.70
2022-12-13T03:01:28.005Z,-1.60
2022-12-13T03:04:16.504Z,-1.70
2022-12-13T03:07:08.913Z,-1.70
2022-12-13T03:10:02.934Z,-1.70
2022-12-13T03:12:53.551Z,-1.70
2022-12-13T03:15:43.316Z,-1.70
2022-12-13T03:18:17.439Z,-1.70
2022-12-13T03:20:59.071Z,-1.70
2022-12-13T03:23:27.181Z,-1.70
2022-12-13T03:25:59.529Z,-1.70
2022-12-13T03:28:27.337Z,-1.70
2022-12-13T03:30:55.120Z,-1.70
2022-12-13T03:33:22.891Z,-1.70
2022-12-13T03:35:50.875Z,-1.80
2022-12-13T03:38:22.040Z,-1.90
2022-12-13T03:41:02.228Z,-2.00
2022-12-13T03:43:32.517Z,-2.00
2022-12-13T03:46:01.299Z,-2.10
2022-12-13T03:48:30.552Z,-2.10
2022-12-13T03:51:00.136Z,-2.10
2022-12-13T03:53:33.213Z,-2.20
2022-12-13T03:56:05.128Z,-2.20
2022-12-13T03:58:36.326Z,-2.20
2022-12-13T04:01:08.973Z,-2.30
2022-12-13T04:03:39.148Z,-2.30
2022-12-13T04:06:07.126Z,-2.40
2022-12-13T04:08:36.054Z,-2.50
2022-12-13T04:11:25.007Z,-2.50
2022-12-13T04:13:52.723Z,-2.60
2022-12-13T04:16:22.226Z,-2.60
2022-12-13T04:18:50.759Z,-2.60
2022-12-13T04:21:19.164Z,-2.70
2022-12-13T04:23:47.508Z,-2.70
2022-12-13T04:26:16.149Z,-2.80
2022-12-13T04:28:44.668Z,-2.80
2022-12-13T04:31:13.917Z,-2.80
2022-12-13T04:33:41.588Z,-2.80
2022-12-13T04:36:09.602Z,-2.80
2022-12-13T04:38:36.487Z,-2.90
2022-12-13T04:41:08.537Z,-3.00
2022-12-13T04:43:36.859Z,-3.00
2022-12-13T04:46:03.826Z,-3.10
2022-12-13T04:48:33.431Z,-3.10
2022-12-13T04:51:02.717Z,-3.10
2022-12-13T04:53:30.550Z,-3.10
2022-12-13T04:55:58.365Z,-3.10
2022-12-13T04:58:26.051Z,-3.20
2022-12-13T05:00:54.145Z,-3.20
2022-12-13T05:03:24.520Z,-3.20
2022-12-13T05:05:52.909Z,-3.20
2022-12-13T05:08:20.628Z,-3.20
2022-12-13T05:10:48.445Z,-3.20
2022-12-13T05:13:16.064Z,-3.20
2022-12-13T05:15:43.637Z,-3.20
2022-12-13T05:18:11.349Z,-3.30
2022-12-13T05:20:41.194Z,-3.30
2022-12-13T05:23:08.124Z,-3.40
2022-12-13T05:25:37.242Z,-3.40
2022-12-13T05:28:27.132Z,-3.40
2022-12-13T05:30:55.344Z,-3.40
2022-12-13T05:33:24.065Z,-3.40
2022-12-13T05:35:57.695Z,-3.40
2022-12-13T05:38:28.228Z,-3.40
2022-12-13T05:40:55.969Z,-3.40
2022-12-13T05:43:24.033Z,-3.40
2022-12-13T05:46:10.848Z,-3.50
2022-12-13T05:48:39.373Z,-3.50
2022-12-13T05:51:09.854Z,-3.50
2022-12-13T05:53:42.280Z,-3.50
2022-12-13T05:56:11.423Z,-3.50
2022-12-13T05:58:40.598Z,-3.50
2022-12-13T06:01:11.273Z,-3.60
2022-12-13T06:03:41.729Z,-3.50
2022-12-13T06:06:11.077Z,-3.60
2022-12-13T06:08:39.598Z,-3.50
2022-12-13T06:11:10.676Z,-3.50
2022-12-13T06:13:44.891Z,-3.60
2022-12-13T06:16:23.158Z,-3.60
2022-12-13T06:18:57.565Z,-3.60
2022-12-13T06:21:43.981Z,-3.60
2022-12-13T06:24:18.244Z,-3.60
2022-12-13T06:26:47.122Z,-3.70
2022-12-13T06:29:24.167Z,-3.70
2022-12-13T06:32:02.417Z,-3.80
2022-12-13T06:36:57.336Z,-3.80
2022-12-13T06:39:25.061Z,-3.80
2022-12-13T06:42:06.816Z,-3.80
2022-12-13T06:44:35.555Z,-3.80
2022-12-13T06:47:11.755Z,-3.90
2022-12-13T06:49:43.964Z,-3.90
2022-12-13T06:52:13.422Z,-3.90
2022-12-13T06:54:42.576Z,-4.00
2022-12-13T06:57:12.634Z,-3.90
2022-12-13T06:59:42.702Z,-4.00
2022-12-13T07:02:24.846Z,-4.00
2022-12-13T07:04:54.426Z,-4.00
2022-12-13T07:07:24.627Z,-3.90
2022-12-13T07:09:53.672Z,-3.90
2022-12-13T07:12:22.470Z,-3.90
2022-12-13T07:14:51.275Z,-4.00
2022-12-13T07:17:32.682Z,-3.90
2022-12-13T07:20:08.330Z,-4.00
2022-12-13T07:22:46.581Z,-4.00
2022-12-13T07:25:28.664Z,-4.00
2022-12-13T07:28:22.442Z,-4.00
2022-12-13T07:30:50.189Z,-4.00
2022-12-13T07:34:24.203Z,-4.00
2022-12-13T07:36:51.200Z,-4.00
2022-12-13T07:39:19.049Z,-4.10
2022-12-13T07:41:48.115Z,-4.00
2022-12-13T07:44:17.951Z,-4.10
2022-12-13T07:46:46.242Z,-4.10
2022-12-13T07:49:13.932Z,-4.00
2022-12-13T07:51:42.220Z,-4.00
2022-12-13T07:54:09.815Z,-4.10
2022-12-13T07:56:40.399Z,-4.10
2022-12-13T07:59:10.285Z,-4.00
2022-12-13T08:01:38.688Z,-4.00
2022-12-13T08:04:06.132Z,-4.00
2022-12-13T08:06:38.129Z,-4.00
2022-12-13T08:09:06.363Z,-4.00
2022-12-13T08:11:35.844Z,-4.10
2022-12-13T08:14:04.007Z,-4.00
2022-12-13T08:16:32.847Z,-4.00
2022-12-13T08:19:04.049Z,-4.00
2022-12-13T08:21:53.797Z,-4.00
2022-12-13T08:24:22.603Z,-4.00
2022-12-13T08:26:50.289Z,-4.00
2022-12-13T08:29:23.258Z,-3.90
2022-12-13T08:32:07.002Z,-3.90
2022-12-13T08:34:34.030Z,-3.90
2022-12-13T08:37:04.675Z,-3.90
2022-12-13T08:39:35.589Z,-3.90
2022-12-13T08:42:15.920Z,-3.90
2022-12-13T08:44:51.016Z,-3.90
2022-12-13T08:47:23.249Z,-4.00
2022-12-13T08:50:04.031Z,-3.90
2022-12-13T08:52:40.436Z,-3.80
2022-12-13T08:55:13.890Z,-3.90
2022-12-13T08:57:43.165Z,-3.90
2022-12-13T09:00:18.413Z,-3.90
2022-12-13T09:02:46.277Z,-3.90
2022-12-13T09:05:32.229Z,-3.80
2022-12-13T09:08:23.147Z,-3.80
2022-12-13T09:10:59.673Z,-3.90
2022-12-13T09:13:33.033Z,-3.90
2022-12-13T09:16:14.030Z,-3.80
2022-12-13T09:18:42.924Z,-3.80
2022-12-13T09:21:22.333Z,-3.90
2022-12-13T09:23:51.608Z,-3.90
2022-12-13T09:26:19.523Z,-3.90
2022-12-13T09:28:55.758Z,-3.80
2022-12-13T09:31:24.213Z,-3.80
2022-12-13T09:33:51.926Z,-3.90
2022-12-13T09:36:21.520Z,-3.90
2022-12-13T09:38:49.188Z,-3.90
2022-12-13T09:41:29.772Z,-3.90
2022-12-13T09:44:32.925Z,-3.90
2022-12-13T09:47:01.331Z,-3.90
2022-12-13T09:49:38.110Z,-3.90
2022-12-13T09:52:21.194Z,-3.90
2022-12-13T09:54:56.962Z,-4.00
2022-12-13T09:57:33.859Z,-3.90
2022-12-13T10:00:06.265Z,-4.00
2022-12-13T10:02:51.805Z,-4.00
2022-12-13T10:05:22.634Z,-4.10
2022-12-13T10:07:56.599Z,-4.00
2022-12-13T10:10:26.161Z,-4.10
2022-12-13T10:13:08.459Z,-4.10
2022-12-13T10:15:41.684Z,-4.00
2022-12-13T10:18:18.112Z,-4.00
2022-12-13T10:20:49.353Z,-4.10
2022-12-13T10:24:06.771Z,-4.00
2022-12-13T10:26:14.721Z,-4.10
2022-12-13T10:29:01.868Z,-4.10
2022-12-13T10:31:29.014Z,-4.10
2022-12-13T10:33:57.545Z,-4.20
2022-12-13T10:36:36.411Z,-4.10
2022-12-13T10:39:04.838Z,-4.20
2022-12-13T10:41:38.081Z,-4.10
2022-12-13T10:44:12.227Z,-4.20
2022-12-13T10:46:42.877Z,-4.10
2022-12-13T10:49:26.294Z,-4.20
2022-12-13T10:51:55.452Z,-4.20
2022-12-13T10:54:27.694Z,-4.20
2022-12-13T10:57:00.344Z,-4.20
2022-12-13T10:59:35.141Z,-4.20
2022-12-13T11:02:27.031Z,-4.30
2022-12-13T11:04:58.279Z,-4.20
2022-12-13T11:07:33.380Z,-4.20
2022-12-13T11:10:27.629Z,-4.20
2022-12-13T11:13:02.797Z,-4.20
2022-12-13T11:15:35.678Z,-4.20
2022-12-13T11:18:18.661Z,-4.30
2022-12-13T11:21:00.428Z,-4.30
2022-12-13T11:23:31.644Z,-4.30
2022-12-13T11:26:02.108Z,-4.30
2022-12-13T11:28:45.520Z,-4.30
2022-12-13T11:31:43.812Z,-4.30
2022-12-13T11:34:20.337Z,-4.30
2022-12-13T11:37:06.580Z,-4.30
2022-12-13T11:39:36.921Z,-4.30
2022-12-13T11:42:16.547Z,-4.30
2022-12-13T11:44:49.709Z,-4.30
2022-12-13T11:47:24.894Z,-4.30
2022-12-13T11:49:53.312Z,-4.40
2022-12-13T11:52:50.904Z,-4.40
2022-12-13T11:55:44.753Z,-4.40
2022-12-13T11:58:53.523Z,-4.40
2022-12-13T12:01:13.084Z,-4.40
2022-12-13T12:04:20.671Z,-4.40
2022-12-13T12:07:31.042Z,-4.40
2022-12-13T12:10:12.255Z,-4.40
2022-12-13T12:12:48.761Z,-4.40
2022-12-13T12:15:27.394Z,-4.40
2022-12-13T12:17:56.053Z,-4.40
2022-12-13T12:20:46.331Z,-4.50
2022-12-13T12:23:30.064Z,-4.50
2022-12-13T12:26:08.760Z,-4.50
2022-12-13T12:29:01.418Z,-4.60
2022-12-13T12:31:50.540Z,-4.50
2022-12-13T12:34:27.270Z,-4.60
2022-12-13T12:37:49.229Z,-4.70
2022-12-13T12:41:15.239Z,-4.70
2022-12-13T12:43:39.769Z,-4.70
2022-12-13T12:46:13.231Z,-4.80
2022-12-13T12:49:09.580Z,-4.80
2022-12-13T12:51:56.601Z,-4.80
2022-12-13T12:54:48.389Z,-4.90
2022-12-13T12:57:47.782Z,-4.90
2022-12-13T13:00:21.987Z,-4.90
2022-12-13T13:03:22.289Z,-4.90
2022-12-13T13:06:05.958Z,-5.00
2022-12-13T13:08:59.085Z,-5.00
2022-12-13T13:11:30.761Z,-5.10
2022-12-13T13:14:03.580Z,-5.10
2022-12-13T13:16:37.694Z,-5.10
2022-12-13T13:19:11.143Z,-5.20
2022-12-13T13:21:52.873Z,-5.20
2022-12-13T13:24:22.229Z,-5.10
2022-12-13T13:26:53.377Z,-5.10
2022-12-13T13:29:27.033Z,-5.20
2022-12-13T13:32:05.192Z,-5.20
2022-12-13T13:34:44.050Z,-5.30
2022-12-13T13:37:45.204Z,-5.20
2022-12-13T13:40:12.881Z,-5.30
2022-12-13T13:43:10.634Z,-5.40
2022-12-13T13:45:59.767Z,-5.40
2022-12-13T13:48:48.956Z,-5.40
2022-12-13T13:52:08.559Z,-5.50
2022-12-13T13:55:04.432Z,-5.50
2022-12-13T13:58:13.230Z,-5.60
2022-12-13T14:01:02.714Z,-5.50
2022-12-13T14:04:09.141Z,-5.60
2022-12-13T14:06:41.843Z,-5.60
2022-12-13T14:09:14.523Z,-5.70
2022-12-13T14:12:13.445Z,-5.70
2022-12-13T14:15:03.297Z,-5.70
2022-12-13T14:18:21.393Z,-5.80
2022-12-13T14:21:18.755Z,-5.70
2022-12-13T14:24:45.731Z,-5.70
2022-12-13T14:27:28.774Z,-5.80
2022-12-13T14:29:58.948Z,-5.80
2022-12-13T14:32:30.516Z,-5.80
2022-12-13T14:34:59.677Z,-5.90
2022-12-13T14:38:05.684Z,-5.90
2022-12-13T14:40:36.438Z,-5.90
2022-12-13T14:43:04.565Z,-5.80
2022-12-13T14:45:43.379Z,-5.90
2022-12-13T14:48:16.160Z,-5.90
2022-12-13T14:50:57.140Z,-5.80
2022-12-13T14:53:42.920Z,-5.80
2022-12-13T14:56:28.673Z,-5.80
2022-12-13T14:58:58.375Z,-5.90
2022-12-13T15:01:32.647Z,-5.80
2022-12-13T15:04:18.745Z,-5.90
2022-12-13T15:06:57.398Z,-5.90
2022-12-13T15:09:28.851Z,-5.80
2022-12-13T15:12:14.493Z,-5.80
2022-12-13T15:15:00.025Z,-5.80
2022-12-13T15:17:45.145Z,-5.80
2022-12-13T15:20:26.832Z,-5.80
2022-12-13T15:23:06.068Z,-5.80
2022-12-13T15:25:35.428Z,-5.70
2022-12-13T15:28:05.802Z,-5.70
2022-12-13T15:30:35.426Z,-5.80
2022-12-13T15:33:05.594Z,-5.80
2022-12-13T15:35:34.440Z,-5.80
2022-12-13T15:38:04.741Z,-5.80
2022-12-13T15:40:33.237Z,-5.70
2022-12-13T15:43:01.703Z,-5.80
2022-12-13T15:45:37.116Z,-5.80
2022-12-13T15:48:38.292Z,-5.80
2022-12-13T15:51:12.598Z,-5.80
2022-12-13T15:54:04.981Z,-5.80
2022-12-13T15:56:38.654Z,-5.90
2022-12-13T15:59:29.841Z,-5.90
2022-12-13T16:01:58.743Z,-5.90
2022-12-13T16:04:35.249Z,-5.90
2022-12-13T16:07:02.872Z,-5.90
2022-12-13T16:09:35.481Z,-5.80
2022-12-13T16:12:06.956Z,-5.80
2022-12-13T16:14:49.617Z,-5.80
2022-12-13T16:17:29.564Z,-5.90
2022-12-13T16:20:02.108Z,-5.90
2022-12-13T16:22:33.009Z,-5.80
2022-12-13T16:25:00.871Z,-5.90
2022-12-13T16:27:29.257Z,-5.90
2022-12-13T16:29:57.557Z,-5.80
2022-12-13T16:32:28.737Z,-5.90
2022-12-13T16:34:58.044Z,-5.70
2022-12-13T16:37:27.553Z,-5.80
2022-12-13T16:39:57.420Z,-5.80
2022-12-13T16:42:26.118Z,-5.90
2022-12-13T16:45:40.756Z,-5.90
2022-12-13T16:47:48.510Z,-5.80
2022-12-13T16:50:20.806Z,-5.80
2022-12-13T16:52:49.147Z,-5.80
2022-12-13T16:55:16.425Z,-5.80
2022-12-13T16:57:43.426Z,-5.80
2022-12-13T17:00:12.781Z,-5.80
2022-12-13T17:02:40.981Z,-5.80
2022-12-13T17:05:08.419Z,-5.80
2022-12-13T17:07:35.615Z,-5.80
2022-12-13T17:10:03.162Z,-5.80
2022-12-13T17:12:31.564Z,-5.80
2022-12-13T17:14:59.203Z,-5.80
2022-12-13T17:17:27.911Z,-5.80
2022-12-13T17:19:55.593Z,-5.80
2022-12-13T17:22:22.653Z,-5.80
2022-12-13T17:24:49.583Z,-5.80
2022-12-13T17:27:16.600Z,-5.80
2022-12-13T17:29:43.525Z,-5.80
2022-12-13T17:32:11.151Z,-5.80
2022-12-13T17:34:38.753Z,-5.80
2022-12-13T17:37:10.633Z,-5.80
2022-12-13T17:39:38.468Z,-5.90
2022-12-13T17:42:07.027Z,-5.80
2022-12-13T17:44:38.050Z,-5.80
2022-12-13T17:47:06.035Z,-5.80
2022-12-13T17:49:33.628Z,-5.80
2022-12-13T17:52:01.103Z,-5.90
2022-12-13T17:54:29.513Z,-5.80
2022-12-13T17:56:57.150Z,-5.90
2022-12-13T17:59:24.953Z,-5.90
2022-12-13T18:01:52.007Z,-5.90
2022-12-13T18:04:20.548Z,-5.90
2022-12-13T18:06:48.254Z,-5.80
2022-12-13T18:09:16.598Z,-5.80
2022-12-13T18:11:44.239Z,-5.90
2022-12-13T18:14:12.704Z,-5.80
2022-12-13T18:16:42.068Z,-5.90
2022-12-13T18:19:14.195Z,-5.80
2022-12-13T18:21:44.522Z,-5.90
2022-12-13T18:24:12.914Z,-5.80
2022-12-13T18:26:42.443Z,-5.90
2022-12-13T18:29:10.130Z,-5.80
2022-12-13T18:31:37.818Z,-5.90
2022-12-13T18:34:08.083Z,-5.90
2022-12-13T18:36:36.552Z,-5.80
2022-12-13T18:39:04.956Z,-5.90
2022-12-13T18:41:36.036Z,-5.90
2022-12-13T18:44:11.143Z,-5.90
2022-12-13T18:46:43.362Z,-5.90
2022-12-13T18:49:13.129Z,-5.90
2022-12-13T18:51:41.276Z,-5.90
2022-12-13T18:54:12.330Z,-5.80
2022-12-13T18:56:40.027Z,-5.80
2022-12-13T18:59:08.488Z,-5.80
2022-12-13T19:01:36.261Z,-5.90
2022-12-13T19:04:05.554Z,-5.80
2022-12-13T19:06:35.848Z,-5.80
2022-12-13T19:09:04.347Z,-5.90
2022-12-13T19:11:33.360Z,-6.00
2022-12-13T19:14:04.280Z,-5.90
2022-12-13T19:16:32.774Z,-5.90
2022-12-13T19:18:59.759Z,-5.90
2022-12-13T19:22:15.903Z,-5.90
2022-12-13T19:24:43.636Z,-5.90
2022-12-13T19:27:11.252Z,-5.80
2022-12-13T19:29:42.367Z,-5.80
2022-12-13T19:32:09.252Z,-5.80
2022-12-13T19:34:36.924Z,-5.80
2022-12-13T19:37:06.636Z,-5.90
2022-12-13T19:39:35.204Z,-5.80
2022-12-13T19:42:05.264Z,-5.80
2022-12-13T19:44:33.553Z,-5.80
2022-12-13T19:47:02.243Z,-5.90
2022-12-13T19:49:32.388Z,-5.90
2022-12-13T19:52:00.319Z,-5.90
2022-12-13T19:54:28.246Z,-5.90
2022-12-13T19:56:55.120Z,-5.90
2022-12-13T19:59:22.775Z,-5.90
2022-12-13T20:01:50.473Z,-5.90
2022-12-13T20:04:17.435Z,-5.90
2022-12-13T20:06:44.369Z,-5.90
2022-12-13T20:09:13.154Z,-5.80
2022-12-13T20:11:41.003Z,-5.80
2022-12-13T20:14:08.000Z,-5.90
2022-12-13T20:16:35.668Z,-5.90
2022-12-13T20:19:04.214Z,-5.90
2022-12-13T20:21:32.025Z,-5.90
2022-12-13T20:23:59.739Z,-5.90
2022-12-13T20:26:29.794Z,-5.90
2022-12-13T20:29:00.467Z,-5.90
2022-12-13T20:31:31.846Z,-5.90
2022-12-13T20:34:06.699Z,-5.90
2022-12-13T20:36:34.498Z,-5.90
2022-12-13T20:39:04.590Z,-5.90
2022-12-13T20:41:33.619Z,-5.90
2022-12-13T20:44:04.168Z,-5.90
2022-12-13T20:46:32.732Z,-5.90
2022-12-13T20:49:03.896Z,-5.90
2022-12-13T20:51:34.060Z,-5.90
2022-12-13T20:54:02.616Z,-6.00
2022-12-13T20:56:36.875Z,-6.00
2022-12-13T20:59:06.800Z,-6.00
2022-12-13T21:01:38.426Z,-6.00
2022-12-13T21:04:07.955Z,-6.00
2022-12-13T21:06:37.335Z,-6.00
2022-12-13T21:09:06.592Z,-6.00
2022-12-13T21:11:46.911Z,-6.00
2022-12-13T21:14:25.742Z,-6.00
2022-12-13T21:16:55.060Z,-6.00
2022-12-13T21:19:27.812Z,-6.10
2022-12-13T21:21:56.626Z,-6.10
2022-12-13T21:24:26.289Z,-6.00
2022-12-13T21:26:56.582Z,-6.00
2022-12-13T21:29:25.086Z,-6.10
2022-12-13T21:31:54.891Z,-6.00
2022-12-13T21:34:24.581Z,-6.00
2022-12-13T21:36:52.757Z,-6.00
2022-12-13T21:39:27.844Z,-6.10
2022-12-13T21:41:56.903Z,-6.20
2022-12-13T21:44:27.983Z,-6.30
2022-12-13T21:47:12.913Z,-6.30
2022-12-13T21:49:41.827Z,-6.30
2022-12-13T21:52:10.367Z,-6.40
2022-12-13T21:54:38.000Z,-6.30
2022-12-13T21:57:24.192Z,-6.40
2022-12-13T21:59:52.755Z,-6.40
2022-12-13T22:02:21.245Z,-6.40
2022-12-13T22:04:54.305Z,-6.50
2022-12-13T22:07:24.500Z,-6.40
2022-12-13T22:09:54.324Z,-6.40
2022-12-13T22:12:23.169Z,-6.50
2022-12-13T22:14:53.031Z,-6.50
2022-12-13T22:17:31.273Z,-6.60
2022-12-13T22:20:02.105Z,-6.50
2022-12-13T22:22:30.109Z,-6.60
2022-12-13T22:24:58.512Z,-6.50
2022-12-13T22:27:27.077Z,-6.60
2022-12-13T22:29:57.479Z,-6.60
2022-12-13T22:32:27.104Z,-6.70
2022-12-13T22:34:56.113Z,-6.80
2022-12-13T22:37:26.538Z,-6.80
2022-12-13T22:39:54.419Z,-6.80
2022-12-13T22:42:22.048Z,-6.90
2022-12-13T22:44:51.015Z,-6.80
2022-12-13T22:47:20.020Z,-6.80
2022-12-13T22:49:49.264Z,-6.80
2022-12-13T22:52:17.689Z,-6.90
2022-12-13T22:54:46.874Z,-6.90
2022-12-13T22:57:17.084Z,-6.90
2022-12-13T22:59:44.770Z,-6.90
2022-12-13T23:02:12.521Z,-6.90
2022-12-13T23:04:40.298Z,-6.90
2022-12-13T23:07:08.060Z,-6.90
2022-12-13T23:09:34.961Z,-6.90
2022-12-13T23:12:21.004Z,-6.90
2022-12-13T23:14:48.016Z,-6.90
2022-12-13T23:17:15.592Z,-6.90
2022-12-13T23:19:48.929Z,-6.90
2022-12-13T23:22:18.594Z,-6.90
2022-12-13T23:24:46.155Z,-7.00
2022-12-13T23:27:14.537Z,-7.00
2022-12-13T23:29:42.609Z,-7.00
2022-12-13T23:32:10.943Z,-7.00
2022-12-13T23:34:38.887Z,-7.00
2022-12-13T23:37:07.159Z,-7.10
2022-12-13T23:39:34.782Z,-7.00
2022-12-13T23:42:03.876Z,-7.00
2022-12-13T23:44:30.840Z,-7.00
2022-12-13T23:46:57.718Z,-7.00
2022-12-13T23:49:25.355Z,-6.90
2022-12-13T23:51:55.614Z,-6.90
2022-12-13T23:54:23.943Z,-6.90
2022-12-13T23:56:50.804Z,-6.90
2022-12-13T23:59:18.974Z,-6.90
